sensor_id;sensor_type;location;lat;lon;timestamp;P1;durP1;ratioP1;P2;durP2;ratioP2
73120;SDS011;61307;49.628;-1.624;2024-03-06T00:00:02;9.15;;;5.07;;
73120;SDS011;61307;49.628;-1.624;2024-03-06T00:02:30;7.15;;;5.05;;
73120;SDS011;61307;49.628;-1.624;2024-03-06T00:04:56;8.15;;;4.90;;
73120;SDS011;61307;49.628;-1.624;2024-03-06T00:07:24;9.18;;;4.97;;
73120;SDS011;61307;49.628;-1.624;2024-03-06T00:09:51;9.82;;;5.47;;
73120;SDS011;61307;49.628;-1.624;2024-03-06T00:12:19;10.70;;;4.93;;
73120;SDS011;61307;49.628;-1.624;2024-03-06T00:14:46;8.00;;;4.30;;
73120;SDS011;61307;49.628;-1.624;2024-03-06T00:17:14;7.82;;;5.20;;
73120;SDS011;61307;49.628;-1.624;2024-03-06T00:19:41;11.07;;;5.45;;
73120;SDS011;61307;49.628;-1.624;2024-03-06T00:22:09;7.97;;;4.78;;
73120;SDS011;61307;49.628;-1.624;2024-03-06T00:24:36;11.70;;;5.40;;
73120;SDS011;61307;49.628;-1.624;2024-03-06T00:27:03;8.35;;;5.18;;
73120;SDS011;61307;49.628;-1.624;2024-03-06T00:29:30;9.10;;;4.90;;
73120;SDS011;61307;49.628;-1.624;2024-03-06T00:31:57;8.75;;;4.70;;
73120;SDS011;61307;49.628;-1.624;2024-03-06T00:34:25;10.82;;;4.88;;
73120;SDS011;61307;49.628;-1.624;2024-03-06T00:36:52;9.23;;;4.80;;
73120;SDS011;61307;49.628;-1.624;2024-03-06T00:39:19;8.18;;;4.45;;
73120;SDS011;61307;49.628;-1.624;2024-03-06T00:41:46;7.32;;;4.68;;
73120;SDS011;61307;49.628;-1.624;2024-03-06T00:44:13;11.88;;;5.00;;
73120;SDS011;61307;49.628;-1.624;2024-03-06T00:46:41;10.38;;;5.05;;
73120;SDS011;61307;49.628;-1.624;2024-03-06T00:49:08;9.93;;;5.05;;
73120;SDS011;61307;49.628;-1.624;2024-03-06T00:51:36;8.90;;;4.80;;
73120;SDS011;61307;49.628;-1.624;2024-03-06T00:54:03;7.82;;;4.50;;
73120;SDS011;61307;49.628;-1.624;2024-03-06T00:56:30;7.18;;;4.45;;
73120;SDS011;61307;49.628;-1.624;2024-03-06T00:58:57;9.10;;;4.93;;
73120;SDS011;61307;49.628;-1.624;2024-03-06T01:01:24;7.90;;;5.25;;
73120;SDS011;61307;49.628;-1.624;2024-03-06T01:03:52;10.55;;;5.05;;
73120;SDS011;61307;49.628;-1.624;2024-03-06T01:06:20;8.75;;;5.15;;
73120;SDS011;61307;49.628;-1.624;2024-03-06T01:08:48;9.70;;;5.50;;
73120;SDS011;61307;49.628;-1.624;2024-03-06T01:11:15;10.75;;;5.03;;
73120;SDS011;61307;49.628;-1.624;2024-03-06T01:13:42;8.43;;;5.10;;
73120;SDS011;61307;49.628;-1.624;2024-03-06T01:16:09;10.52;;;5.85;;
73120;SDS011;61307;49.628;-1.624;2024-03-06T01:18:36;10.30;;;5.60;;
73120;SDS011;61307;49.628;-1.624;2024-03-06T01:21:03;9.82;;;5.55;;
73120;SDS011;61307;49.628;-1.624;2024-03-06T01:23:30;9.05;;;5.15;;
73120;SDS011;61307;49.628;-1.624;2024-03-06T01:25:58;8.13;;;5.30;;
73120;SDS011;61307;49.628;-1.624;2024-03-06T01:28:25;8.55;;;5.18;;
73120;SDS011;61307;49.628;-1.624;2024-03-06T01:30:52;7.88;;;4.43;;
73120;SDS011;61307;49.628;-1.624;2024-03-06T01:33:19;9.43;;;4.82;;
73120;SDS011;61307;49.628;-1.624;2024-03-06T01:35:46;11.80;;;5.07;;
73120;SDS011;61307;49.628;-1.624;2024-03-06T01:38:13;7.95;;;5.72;;
73120;SDS011;61307;49.628;-1.624;2024-03-06T01:40:42;9.85;;;5.05;;
73120;SDS011;61307;49.628;-1.624;2024-03-06T01:43:18;7.78;;;4.72;;
73120;SDS011;61307;49.628;-1.624;2024-03-06T01:45:47;10.52;;;5.30;;
73120;SDS011;61307;49.628;-1.624;2024-03-06T01:48:14;9.13;;;5.03;;
73120;SDS011;61307;49.628;-1.624;2024-03-06T01:50:42;8.32;;;4.93;;
73120;SDS011;61307;49.628;-1.624;2024-03-06T01:53:09;9.85;;;5.57;;
73120;SDS011;61307;49.628;-1.624;2024-03-06T01:55:36;9.82;;;5.22;;
73120;SDS011;61307;49.628;-1.624;2024-03-06T01:58:03;9.52;;;5.35;;
73120;SDS011;61307;49.628;-1.624;2024-03-06T02:00:32;7.78;;;5.05;;
73120;SDS011;61307;49.628;-1.624;2024-03-06T02:03:00;9.02;;;5.38;;
73120;SDS011;61307;49.628;-1.624;2024-03-06T02:05:27;10.30;;;5.63;;
73120;SDS011;61307;49.628;-1.624;2024-03-06T02:07:56;11.20;;;5.07;;
73120;SDS011;61307;49.628;-1.624;2024-03-06T02:10:24;8.80;;;5.15;;
73120;SDS011;61307;49.628;-1.624;2024-03-06T02:12:52;9.88;;;5.57;;
73120;SDS011;61307;49.628;-1.624;2024-03-06T02:15:19;10.32;;;5.82;;
73120;SDS011;61307;49.628;-1.624;2024-03-06T02:17:48;11.02;;;5.50;;
73120;SDS011;61307;49.628;-1.624;2024-03-06T02:20:16;11.70;;;5.22;;
73120;SDS011;61307;49.628;-1.624;2024-03-06T02:22:44;9.00;;;5.25;;
73120;SDS011;61307;49.628;-1.624;2024-03-06T02:25:11;9.65;;;5.13;;
73120;SDS011;61307;49.628;-1.624;2024-03-06T02:27:40;9.02;;;5.13;;
73120;SDS011;61307;49.628;-1.624;2024-03-06T02:30:07;7.03;;;4.90;;
73120;SDS011;61307;49.628;-1.624;2024-03-06T02:32:34;9.05;;;5.20;;
73120;SDS011;61307;49.628;-1.624;2024-03-06T02:35:01;7.97;;;5.05;;
73120;SDS011;61307;49.628;-1.624;2024-03-06T02:37:29;8.45;;;5.07;;
73120;SDS011;61307;49.628;-1.624;2024-03-06T02:39:57;8.77;;;5.20;;
73120;SDS011;61307;49.628;-1.624;2024-03-06T02:42:24;8.15;;;4.97;;
73120;SDS011;61307;49.628;-1.624;2024-03-06T02:44:52;6.63;;;4.80;;
73120;SDS011;61307;49.628;-1.624;2024-03-06T02:47:19;8.48;;;4.85;;
73120;SDS011;61307;49.628;-1.624;2024-03-06T02:49:46;8.65;;;4.90;;
73120;SDS011;61307;49.628;-1.624;2024-03-06T02:52:13;10.13;;;5.10;;
73120;SDS011;61307;49.628;-1.624;2024-03-06T02:54:40;8.77;;;4.88;;
73120;SDS011;61307;49.628;-1.624;2024-03-06T02:57:09;8.45;;;5.10;;
73120;SDS011;61307;49.628;-1.624;2024-03-06T02:59:35;9.88;;;4.70;;
73120;SDS011;61307;49.628;-1.624;2024-03-06T03:02:05;7.97;;;4.47;;
73120;SDS011;61307;49.628;-1.624;2024-03-06T03:04:32;7.82;;;4.72;;
73120;SDS011;61307;49.628;-1.624;2024-03-06T03:06:59;6.47;;;4.47;;
73120;SDS011;61307;49.628;-1.624;2024-03-06T03:09:25;8.35;;;4.70;;
73120;SDS011;61307;49.628;-1.624;2024-03-06T03:11:53;8.73;;;4.43;;
73120;SDS011;61307;49.628;-1.624;2024-03-06T03:14:21;8.45;;;4.47;;
73120;SDS011;61307;49.628;-1.624;2024-03-06T03:16:48;8.40;;;4.68;;
73120;SDS011;61307;49.628;-1.624;2024-03-06T03:19:15;9.23;;;4.53;;
73120;SDS011;61307;49.628;-1.624;2024-03-06T03:21:43;7.55;;;4.15;;
73120;SDS011;61307;49.628;-1.624;2024-03-06T03:24:10;8.07;;;4.40;;
73120;SDS011;61307;49.628;-1.624;2024-03-06T03:26:37;6.50;;;4.25;;
73120;SDS011;61307;49.628;-1.624;2024-03-06T03:29:07;6.60;;;3.92;;
73120;SDS011;61307;49.628;-1.624;2024-03-06T03:31:35;6.78;;;4.45;;
73120;SDS011;61307;49.628;-1.624;2024-03-06T03:34:03;6.20;;;3.53;;
73120;SDS011;61307;49.628;-1.624;2024-03-06T03:36:31;8.07;;;3.67;;
73120;SDS011;61307;49.628;-1.624;2024-03-06T03:38:58;8.40;;;4.38;;
73120;SDS011;61307;49.628;-1.624;2024-03-06T03:41:25;6.82;;;3.80;;
73120;SDS011;61307;49.628;-1.624;2024-03-06T03:43:52;7.20;;;3.97;;
73120;SDS011;61307;49.628;-1.624;2024-03-06T03:46:19;7.85;;;4.43;;
73120;SDS011;61307;49.628;-1.624;2024-03-06T03:48:47;6.72;;;3.92;;
73120;SDS011;61307;49.628;-1.624;2024-03-06T03:51:14;7.75;;;4.07;;
73120;SDS011;61307;49.628;-1.624;2024-03-06T03:53:41;6.53;;;3.75;;
73120;SDS011;61307;49.628;-1.624;2024-03-06T03:56:08;6.57;;;3.70;;
73120;SDS011;61307;49.628;-1.624;2024-03-06T03:58:35;9.10;;;4.00;;
73120;SDS011;61307;49.628;-1.624;2024-03-06T04:01:02;6.07;;;3.78;;
73120;SDS011;61307;49.628;-1.624;2024-03-06T04:03:29;6.97;;;4.05;;
73120;SDS011;61307;49.628;-1.624;2024-03-06T04:05:57;7.13;;;4.18;;
73120;SDS011;61307;49.628;-1.624;2024-03-06T04:08:24;6.57;;;3.38;;
73120;SDS011;61307;49.628;-1.624;2024-03-06T04:10:51;7.45;;;4.07;;
73120;SDS011;61307;49.628;-1.624;2024-03-06T04:13:17;8.32;;;3.80;;
73120;SDS011;61307;49.628;-1.624;2024-03-06T04:15:45;7.28;;;3.95;;
73120;SDS011;61307;49.628;-1.624;2024-03-06T04:18:12;5.72;;;3.72;;
73120;SDS011;61307;49.628;-1.624;2024-03-06T04:20:40;7.13;;;4.10;;
73120;SDS011;61307;49.628;-1.624;2024-03-06T04:23:08;6.00;;;3.90;;
73120;SDS011;61307;49.628;-1.624;2024-03-06T04:25:35;7.15;;;4.15;;
73120;SDS011;61307;49.628;-1.624;2024-03-06T04:28:02;7.63;;;4.05;;
73120;SDS011;61307;49.628;-1.624;2024-03-06T04:30:29;7.03;;;3.85;;
73120;SDS011;61307;49.628;-1.624;2024-03-06T04:32:56;5.95;;;3.58;;
73120;SDS011;61307;49.628;-1.624;2024-03-06T04:35:23;5.97;;;3.72;;
73120;SDS011;61307;49.628;-1.624;2024-03-06T04:37:50;6.65;;;3.78;;
73120;SDS011;61307;49.628;-1.624;2024-03-06T04:40:18;6.65;;;3.45;;
73120;SDS011;61307;49.628;-1.624;2024-03-06T04:42:47;5.68;;;3.40;;
73120;SDS011;61307;49.628;-1.624;2024-03-06T04:45:14;5.95;;;3.90;;
73120;SDS011;61307;49.628;-1.624;2024-03-06T04:47:42;5.75;;;3.45;;
73120;SDS011;61307;49.628;-1.624;2024-03-06T04:50:10;6.38;;;3.53;;
73120;SDS011;61307;49.628;-1.624;2024-03-06T04:52:38;5.60;;;3.30;;
73120;SDS011;61307;49.628;-1.624;2024-03-06T04:55:05;4.57;;;2.90;;
73120;SDS011;61307;49.628;-1.624;2024-03-06T04:57:36;7.82;;;3.50;;
73120;SDS011;61307;49.628;-1.624;2024-03-06T05:00:04;5.93;;;3.40;;
73120;SDS011;61307;49.628;-1.624;2024-03-06T05:02:31;5.43;;;3.30;;
73120;SDS011;61307;49.628;-1.624;2024-03-06T05:04:59;6.15;;;3.25;;
73120;SDS011;61307;49.628;-1.624;2024-03-06T05:07:27;4.22;;;2.97;;
73120;SDS011;61307;49.628;-1.624;2024-03-06T05:09:54;5.57;;;3.10;;
73120;SDS011;61307;49.628;-1.624;2024-03-06T05:12:21;3.72;;;2.90;;
73120;SDS011;61307;49.628;-1.624;2024-03-06T05:14:49;4.70;;;3.13;;
73120;SDS011;61307;49.628;-1.624;2024-03-06T05:17:16;4.82;;;3.03;;
73120;SDS011;61307;49.628;-1.624;2024-03-06T05:19:43;5.20;;;3.15;;
73120;SDS011;61307;49.628;-1.624;2024-03-06T05:22:10;4.53;;;2.95;;
73120;SDS011;61307;49.628;-1.624;2024-03-06T05:24:37;4.80;;;3.10;;
73120;SDS011;61307;49.628;-1.624;2024-03-06T05:27:04;4.72;;;2.80;;
73120;SDS011;61307;49.628;-1.624;2024-03-06T05:29:31;4.32;;;2.80;;
73120;SDS011;61307;49.628;-1.624;2024-03-06T05:31:59;5.07;;;3.03;;
73120;SDS011;61307;49.628;-1.624;2024-03-06T05:34:26;3.65;;;2.50;;
73120;SDS011;61307;49.628;-1.624;2024-03-06T05:36:53;3.58;;;2.67;;
73120;SDS011;61307;49.628;-1.624;2024-03-06T05:39:19;4.22;;;3.05;;
73120;SDS011;61307;49.628;-1.624;2024-03-06T05:41:46;4.00;;;2.75;;
73120;SDS011;61307;49.628;-1.624;2024-03-06T05:44:13;4.75;;;3.00;;
73120;SDS011;61307;49.628;-1.624;2024-03-06T05:46:40;4.55;;;2.53;;
73120;SDS011;61307;49.628;-1.624;2024-03-06T05:49:08;4.22;;;2.83;;
73120;SDS011;61307;49.628;-1.624;2024-03-06T05:51:35;3.45;;;2.40;;
73120;SDS011;61307;49.628;-1.624;2024-03-06T05:54:03;3.53;;;2.42;;
73120;SDS011;61307;49.628;-1.624;2024-03-06T05:56:33;3.38;;;2.55;;
73120;SDS011;61307;49.628;-1.624;2024-03-06T05:59:00;4.70;;;2.78;;
73120;SDS011;61307;49.628;-1.624;2024-03-06T06:01:29;3.83;;;2.35;;
73120;SDS011;61307;49.628;-1.624;2024-03-06T06:03:56;4.00;;;2.53;;
73120;SDS011;61307;49.628;-1.624;2024-03-06T06:06:25;5.03;;;2.55;;
73120;SDS011;61307;49.628;-1.624;2024-03-06T06:08:52;5.72;;;2.70;;
73120;SDS011;61307;49.628;-1.624;2024-03-06T06:11:18;3.75;;;2.75;;
73120;SDS011;61307;49.628;-1.624;2024-03-06T06:13:45;4.00;;;2.42;;
73120;SDS011;61307;49.628;-1.624;2024-03-06T06:16:12;3.95;;;2.45;;
73120;SDS011;61307;49.628;-1.624;2024-03-06T06:18:40;4.47;;;2.78;;
73120;SDS011;61307;49.628;-1.624;2024-03-06T06:21:07;3.83;;;2.35;;
73120;SDS011;61307;49.628;-1.624;2024-03-06T06:23:35;4.07;;;2.50;;
73120;SDS011;61307;49.628;-1.624;2024-03-06T06:26:02;3.47;;;2.38;;
73120;SDS011;61307;49.628;-1.624;2024-03-06T06:28:29;2.80;;;2.40;;
73120;SDS011;61307;49.628;-1.624;2024-03-06T06:30:56;2.90;;;2.28;;
73120;SDS011;61307;49.628;-1.624;2024-03-06T06:33:22;2.75;;;2.20;;
73120;SDS011;61307;49.628;-1.624;2024-03-06T06:35:49;2.90;;;2.10;;
73120;SDS011;61307;49.628;-1.624;2024-03-06T06:38:17;3.13;;;2.08;;
73120;SDS011;61307;49.628;-1.624;2024-03-06T06:40:46;3.17;;;2.15;;
73120;SDS011;61307;49.628;-1.624;2024-03-06T06:43:13;2.33;;;1.90;;
73120;SDS011;61307;49.628;-1.624;2024-03-06T06:45:40;3.25;;;2.22;;
73120;SDS011;61307;49.628;-1.624;2024-03-06T06:48:07;2.63;;;2.10;;
73120;SDS011;61307;49.628;-1.624;2024-03-06T06:50:34;3.20;;;2.03;;
73120;SDS011;61307;49.628;-1.624;2024-03-06T06:53:01;2.15;;;1.70;;
73120;SDS011;61307;49.628;-1.624;2024-03-06T06:55:29;2.90;;;1.90;;
73120;SDS011;61307;49.628;-1.624;2024-03-06T06:57:57;2.95;;;1.90;;
73120;SDS011;61307;49.628;-1.624;2024-03-06T07:00:24;2.60;;;1.95;;
73120;SDS011;61307;49.628;-1.624;2024-03-06T07:02:50;3.53;;;1.90;;
73120;SDS011;61307;49.628;-1.624;2024-03-06T07:05:18;2.30;;;1.98;;
73120;SDS011;61307;49.628;-1.624;2024-03-06T07:07:45;2.72;;;1.83;;
73120;SDS011;61307;49.628;-1.624;2024-03-06T07:10:12;3.25;;;2.10;;
73120;SDS011;61307;49.628;-1.624;2024-03-06T07:12:39;3.53;;;1.90;;
73120;SDS011;61307;49.628;-1.624;2024-03-06T07:15:08;2.38;;;1.90;;
73120;SDS011;61307;49.628;-1.624;2024-03-06T07:17:35;2.10;;;1.60;;
73120;SDS011;61307;49.628;-1.624;2024-03-06T07:20:01;2.92;;;2.10;;
73120;SDS011;61307;49.628;-1.624;2024-03-06T07:22:30;2.00;;;1.55;;
73120;SDS011;61307;49.628;-1.624;2024-03-06T07:24:59;3.15;;;2.10;;
73120;SDS011;61307;49.628;-1.624;2024-03-06T07:27:26;2.13;;;1.70;;
73120;SDS011;61307;49.628;-1.624;2024-03-06T07:29:53;2.13;;;1.70;;
73120;SDS011;61307;49.628;-1.624;2024-03-06T07:32:22;2.33;;;1.90;;
73120;SDS011;61307;49.628;-1.624;2024-03-06T07:34:49;4.03;;;1.88;;
73120;SDS011;61307;49.628;-1.624;2024-03-06T07:37:15;2.08;;;1.88;;
73120;SDS011;61307;49.628;-1.624;2024-03-06T07:39:41;2.85;;;1.80;;
73120;SDS011;61307;49.628;-1.624;2024-03-06T07:42:08;3.45;;;1.98;;
73120;SDS011;61307;49.628;-1.624;2024-03-06T07:44:36;1.92;;;1.58;;
73120;SDS011;61307;49.628;-1.624;2024-03-06T07:47:03;2.78;;;2.08;;
73120;SDS011;61307;49.628;-1.624;2024-03-06T07:49:31;2.22;;;1.80;;
73120;SDS011;61307;49.628;-1.624;2024-03-06T07:51:58;2.30;;;1.75;;
73120;SDS011;61307;49.628;-1.624;2024-03-06T07:54:27;1.48;;;1.38;;
73120;SDS011;61307;49.628;-1.624;2024-03-06T07:56:54;1.73;;;1.60;;
73120;SDS011;61307;49.628;-1.624;2024-03-06T07:59:21;4.60;;;1.80;;
73120;SDS011;61307;49.628;-1.624;2024-03-06T08:01:47;2.65;;;1.92;;
73120;SDS011;61307;49.628;-1.624;2024-03-06T08:04:14;2.35;;;2.13;;
73120;SDS011;61307;49.628;-1.624;2024-03-06T08:06:43;2.15;;;1.65;;
73120;SDS011;61307;49.628;-1.624;2024-03-06T08:09:11;3.15;;;1.85;;
73120;SDS011;61307;49.628;-1.624;2024-03-06T08:11:41;3.95;;;2.10;;
73120;SDS011;61307;49.628;-1.624;2024-03-06T08:14:08;4.13;;;1.80;;
73120;SDS011;61307;49.628;-1.624;2024-03-06T08:16:35;2.00;;;1.77;;
73120;SDS011;61307;49.628;-1.624;2024-03-06T08:19:02;2.85;;;2.17;;
73120;SDS011;61307;49.628;-1.624;2024-03-06T08:21:29;5.18;;;2.30;;
73120;SDS011;61307;49.628;-1.624;2024-03-06T08:23:57;4.57;;;1.92;;
73120;SDS011;61307;49.628;-1.624;2024-03-06T08:26:24;2.30;;;1.52;;
73120;SDS011;61307;49.628;-1.624;2024-03-06T08:28:51;11.40;;;2.28;;
73120;SDS011;61307;49.628;-1.624;2024-03-06T08:31:18;3.22;;;1.90;;
73120;SDS011;61307;49.628;-1.624;2024-03-06T08:33:46;4.30;;;1.92;;
73120;SDS011;61307;49.628;-1.624;2024-03-06T08:36:13;3.28;;;2.17;;
73120;SDS011;61307;49.628;-1.624;2024-03-06T08:38:40;4.53;;;2.00;;
73120;SDS011;61307;49.628;-1.624;2024-03-06T08:41:09;2.55;;;2.10;;
73120;SDS011;61307;49.628;-1.624;2024-03-06T08:43:38;2.47;;;2.20;;
73120;SDS011;61307;49.628;-1.624;2024-03-06T08:46:07;7.00;;;2.30;;
73120;SDS011;61307;49.628;-1.624;2024-03-06T08:48:37;3.35;;;2.05;;
73120;SDS011;61307;49.628;-1.624;2024-03-06T08:51:06;4.70;;;2.50;;
73120;SDS011;61307;49.628;-1.624;2024-03-06T08:53:39;5.38;;;2.35;;
73120;SDS011;61307;49.628;-1.624;2024-03-06T08:56:22;3.90;;;2.30;;
73120;SDS011;61307;49.628;-1.624;2024-03-06T08:58:58;6.32;;;2.40;;
73120;SDS011;61307;49.628;-1.624;2024-03-06T09:01:39;4.57;;;2.05;;
73120;SDS011;61307;49.628;-1.624;2024-03-06T09:04:25;4.32;;;2.10;;
73120;SDS011;61307;49.628;-1.624;2024-03-06T09:06:59;4.50;;;2.60;;
73120;SDS011;61307;49.628;-1.624;2024-03-06T09:09:29;3.53;;;2.28;;
73120;SDS011;61307;49.628;-1.624;2024-03-06T09:12:01;4.93;;;2.40;;
73120;SDS011;61307;49.628;-1.624;2024-03-06T09:14:31;5.72;;;2.40;;
73120;SDS011;61307;49.628;-1.624;2024-03-06T09:17:14;5.25;;;1.90;;
73120;SDS011;61307;49.628;-1.624;2024-03-06T09:19:41;3.95;;;2.63;;
73120;SDS011;61307;49.628;-1.624;2024-03-06T09:22:17;5.18;;;2.30;;
73120;SDS011;61307;49.628;-1.624;2024-03-06T09:24:47;6.93;;;2.65;;
73120;SDS011;61307;49.628;-1.624;2024-03-06T09:27:16;4.40;;;2.45;;
73120;SDS011;61307;49.628;-1.624;2024-03-06T09:29:58;7.85;;;2.90;;
73120;SDS011;61307;49.628;-1.624;2024-03-06T09:32:25;7.47;;;3.80;;
73120;SDS011;61307;49.628;-1.624;2024-03-06T09:34:55;7.25;;;4.53;;
73120;SDS011;61307;49.628;-1.624;2024-03-06T09:37:24;10.27;;;5.95;;
73120;SDS011;61307;49.628;-1.624;2024-03-06T09:39:53;12.50;;;6.85;;
73120;SDS011;61307;49.628;-1.624;2024-03-06T09:42:23;12.63;;;8.85;;
73120;SDS011;61307;49.628;-1.624;2024-03-06T09:45:01;13.60;;;8.18;;
73120;SDS011;61307;49.628;-1.624;2024-03-06T09:47:29;11.48;;;10.27;;
73120;SDS011;61307;49.628;-1.624;2024-03-06T09:49:59;10.93;;;9.82;;
73120;SDS011;61307;49.628;-1.624;2024-03-06T09:52:29;16.38;;;10.13;;
73120;SDS011;61307;49.628;-1.624;2024-03-06T09:54:57;21.15;;;10.40;;
73120;SDS011;61307;49.628;-1.624;2024-03-06T09:57:27;13.75;;;11.30;;
73120;SDS011;61307;49.628;-1.624;2024-03-06T09:59:54;15.02;;;10.85;;
73120;SDS011;61307;49.628;-1.624;2024-03-06T10:02:28;13.55;;;11.27;;
73120;SDS011;61307;49.628;-1.624;2024-03-06T10:04:57;14.10;;;12.38;;
73120;SDS011;61307;49.628;-1.624;2024-03-06T10:07:24;16.25;;;12.23;;
73120;SDS011;61307;49.628;-1.624;2024-03-06T10:09:52;12.70;;;11.30;;
73120;SDS011;61307;49.628;-1.624;2024-03-06T10:12:19;14.82;;;10.75;;
73120;SDS011;61307;49.628;-1.624;2024-03-06T10:14:55;14.02;;;11.18;;
73120;SDS011;61307;49.628;-1.624;2024-03-06T10:17:23;14.57;;;12.10;;
73120;SDS011;61307;49.628;-1.624;2024-03-06T10:19:52;22.73;;;13.70;;
73120;SDS011;61307;49.628;-1.624;2024-03-06T10:22:19;21.52;;;12.70;;
73120;SDS011;61307;49.628;-1.624;2024-03-06T10:25:00;21.40;;;11.27;;
73120;SDS011;61307;49.628;-1.624;2024-03-06T10:27:34;31.75;;;12.23;;
73120;SDS011;61307;49.628;-1.624;2024-03-06T10:30:06;19.75;;;9.45;;
73120;SDS011;61307;49.628;-1.624;2024-03-06T10:32:41;16.73;;;7.47;;
73120;SDS011;61307;49.628;-1.624;2024-03-06T10:35:17;15.15;;;6.07;;
73120;SDS011;61307;49.628;-1.624;2024-03-06T10:37:46;17.33;;;5.35;;
73120;SDS011;61307;49.628;-1.624;2024-03-06T10:40:14;15.80;;;4.80;;
73120;SDS011;61307;49.628;-1.624;2024-03-06T10:42:42;16.35;;;3.90;;
73120;SDS011;61307;49.628;-1.624;2024-03-06T10:45:12;10.98;;;3.40;;
73120;SDS011;61307;49.628;-1.624;2024-03-06T10:47:40;10.25;;;3.03;;
73120;SDS011;61307;49.628;-1.624;2024-03-06T10:50:12;10.52;;;3.03;;
73120;SDS011;61307;49.628;-1.624;2024-03-06T10:52:41;8.73;;;2.53;;
73120;SDS011;61307;49.628;-1.624;2024-03-06T10:55:09;7.40;;;2.50;;
73120;SDS011;61307;49.628;-1.624;2024-03-06T10:57:38;13.95;;;2.42;;
73120;SDS011;61307;49.628;-1.624;2024-03-06T11:00:08;9.32;;;2.92;;
73120;SDS011;61307;49.628;-1.624;2024-03-06T11:02:37;11.30;;;2.30;;
73120;SDS011;61307;49.628;-1.624;2024-03-06T11:05:06;9.07;;;2.90;;
73120;SDS011;61307;49.628;-1.624;2024-03-06T11:07:34;10.02;;;2.13;;
73120;SDS011;61307;49.628;-1.624;2024-03-06T11:10:01;7.28;;;2.53;;
73120;SDS011;61307;49.628;-1.624;2024-03-06T11:12:38;8.98;;;2.70;;
73120;SDS011;61307;49.628;-1.624;2024-03-06T11:15:09;7.03;;;2.40;;
73120;SDS011;61307;49.628;-1.624;2024-03-06T11:17:41;12.63;;;2.30;;
73120;SDS011;61307;49.628;-1.624;2024-03-06T11:20:08;8.15;;;2.45;;
73120;SDS011;61307;49.628;-1.624;2024-03-06T11:28:28;8.75;;;2.78;;
73120;SDS011;61307;49.628;-1.624;2024-03-06T11:30:56;9.15;;;2.38;;
73120;SDS011;61307;49.628;-1.624;2024-03-06T11:33:34;7.30;;;2.42;;
73120;SDS011;61307;49.628;-1.624;2024-03-06T11:36:15;11.75;;;2.90;;
73120;SDS011;61307;49.628;-1.624;2024-03-06T11:41:29;10.77;;;3.08;;
73120;SDS011;61307;49.628;-1.624;2024-03-06T11:43:59;7.03;;;2.35;;
73120;SDS011;61307;49.628;-1.624;2024-03-06T11:46:45;7.93;;;2.47;;
73120;SDS011;61307;49.628;-1.624;2024-03-06T11:49:18;8.30;;;2.78;;
73120;SDS011;61307;49.628;-1.624;2024-03-06T11:51:47;13.32;;;6.68;;
73120;SDS011;61307;49.628;-1.624;2024-03-06T11:54:14;9.38;;;3.63;;
73120;SDS011;61307;49.628;-1.624;2024-03-06T11:56:42;10.93;;;3.20;;
73120;SDS011;61307;49.628;-1.624;2024-03-06T11:59:12;8.73;;;3.00;;
73120;SDS011;61307;49.628;-1.624;2024-03-06T12:01:40;7.90;;;3.13;;
73120;SDS011;61307;49.628;-1.624;2024-03-06T12:04:07;11.95;;;3.03;;
73120;SDS011;61307;49.628;-1.624;2024-03-06T12:06:36;8.07;;;2.60;;
73120;SDS011;61307;49.628;-1.624;2024-03-06T12:09:04;9.30;;;2.75;;
73120;SDS011;61307;49.628;-1.624;2024-03-06T12:11:36;8.02;;;2.60;;
73120;SDS011;61307;49.628;-1.624;2024-03-06T12:14:02;9.18;;;2.63;;
73120;SDS011;61307;49.628;-1.624;2024-03-06T12:16:30;6.85;;;2.63;;
73120;SDS011;61307;49.628;-1.624;2024-03-06T12:18:58;8.18;;;2.22;;
73120;SDS011;61307;49.628;-1.624;2024-03-06T12:21:27;14.15;;;2.80;;
73120;SDS011;61307;49.628;-1.624;2024-03-06T12:24:03;8.30;;;2.50;;
73120;SDS011;61307;49.628;-1.624;2024-03-06T12:26:31;6.70;;;2.50;;
73120;SDS011;61307;49.628;-1.624;2024-03-06T12:29:05;9.88;;;2.55;;
73120;SDS011;61307;49.628;-1.624;2024-03-06T12:31:33;8.85;;;2.63;;
73120;SDS011;61307;49.628;-1.624;2024-03-06T12:34:01;8.45;;;2.35;;
73120;SDS011;61307;49.628;-1.624;2024-03-06T12:36:29;10.48;;;2.58;;
73120;SDS011;61307;49.628;-1.624;2024-03-06T12:38:56;5.05;;;2.20;;
73120;SDS011;61307;49.628;-1.624;2024-03-06T12:41:27;9.63;;;2.50;;
73120;SDS011;61307;49.628;-1.624;2024-03-06T12:43:55;12.30;;;2.75;;
73120;SDS011;61307;49.628;-1.624;2024-03-06T12:46:23;7.22;;;2.38;;
73120;SDS011;61307;49.628;-1.624;2024-03-06T12:48:53;5.55;;;2.17;;
73120;SDS011;61307;49.628;-1.624;2024-03-06T12:51:20;7.20;;;2.53;;
73120;SDS011;61307;49.628;-1.624;2024-03-06T12:53:47;5.18;;;2.20;;
73120;SDS011;61307;49.628;-1.624;2024-03-06T12:56:14;7.25;;;2.40;;
73120;SDS011;61307;49.628;-1.624;2024-03-06T12:58:43;10.55;;;2.78;;
73120;SDS011;61307;49.628;-1.624;2024-03-06T13:01:10;9.73;;;2.70;;
73120;SDS011;61307;49.628;-1.624;2024-03-06T13:03:37;11.68;;;2.90;;
73120;SDS011;61307;49.628;-1.624;2024-03-06T13:06:05;9.68;;;2.33;;
73120;SDS011;61307;49.628;-1.624;2024-03-06T13:08:33;6.88;;;2.50;;
73120;SDS011;61307;49.628;-1.624;2024-03-06T13:11:01;8.48;;;2.53;;
73120;SDS011;61307;49.628;-1.624;2024-03-06T13:13:28;5.50;;;2.47;;
73120;SDS011;61307;49.628;-1.624;2024-03-06T13:15:59;5.20;;;2.50;;
73120;SDS011;61307;49.628;-1.624;2024-03-06T13:18:26;7.65;;;2.28;;
73120;SDS011;61307;49.628;-1.624;2024-03-06T13:20:53;7.47;;;2.47;;
73120;SDS011;61307;49.628;-1.624;2024-03-06T13:23:20;7.13;;;2.55;;
73120;SDS011;61307;49.628;-1.624;2024-03-06T13:25:47;7.03;;;3.00;;
73120;SDS011;61307;49.628;-1.624;2024-03-06T13:28:14;12.50;;;3.08;;
73120;SDS011;61307;49.628;-1.624;2024-03-06T13:30:41;4.25;;;2.13;;
73120;SDS011;61307;49.628;-1.624;2024-03-06T13:33:09;10.32;;;2.97;;
73120;SDS011;61307;49.628;-1.624;2024-03-06T13:35:37;10.52;;;2.92;;
73120;SDS011;61307;49.628;-1.624;2024-03-06T13:38:04;12.10;;;2.83;;
73120;SDS011;61307;49.628;-1.624;2024-03-06T13:40:31;9.98;;;2.53;;
73120;SDS011;61307;49.628;-1.624;2024-03-06T13:42:58;8.55;;;2.63;;
73120;SDS011;61307;49.628;-1.624;2024-03-06T13:45:25;13.15;;;2.80;;
73120;SDS011;61307;49.628;-1.624;2024-03-06T13:47:52;8.00;;;2.60;;
73120;SDS011;61307;49.628;-1.624;2024-03-06T13:50:20;7.50;;;2.40;;
73120;SDS011;61307;49.628;-1.624;2024-03-06T13:52:50;11.95;;;2.65;;
73120;SDS011;61307;49.628;-1.624;2024-03-06T13:55:17;9.77;;;2.40;;
73120;SDS011;61307;49.628;-1.624;2024-03-06T13:57:44;10.25;;;2.63;;
73120;SDS011;61307;49.628;-1.624;2024-03-06T14:00:12;11.52;;;2.70;;
73120;SDS011;61307;49.628;-1.624;2024-03-06T14:02:42;10.40;;;2.38;;
73120;SDS011;61307;49.628;-1.624;2024-03-06T14:05:11;11.20;;;2.83;;
73120;SDS011;61307;49.628;-1.624;2024-03-06T14:07:41;13.90;;;2.53;;
73120;SDS011;61307;49.628;-1.624;2024-03-06T14:10:08;12.70;;;3.00;;
73120;SDS011;61307;49.628;-1.624;2024-03-06T14:12:35;7.63;;;2.78;;
73120;SDS011;61307;49.628;-1.624;2024-03-06T14:15:02;10.15;;;2.67;;
73120;SDS011;61307;49.628;-1.624;2024-03-06T14:17:31;9.68;;;2.60;;
73120;SDS011;61307;49.628;-1.624;2024-03-06T14:19:58;7.85;;;2.72;;
73120;SDS011;61307;49.628;-1.624;2024-03-06T14:22:25;8.80;;;2.70;;
73120;SDS011;61307;49.628;-1.624;2024-03-06T14:24:54;8.35;;;3.10;;
73120;SDS011;61307;49.628;-1.624;2024-03-06T14:27:22;8.07;;;2.65;;
73120;SDS011;61307;49.628;-1.624;2024-03-06T14:29:49;10.05;;;3.15;;
73120;SDS011;61307;49.628;-1.624;2024-03-06T14:32:16;8.48;;;2.55;;
73120;SDS011;61307;49.628;-1.624;2024-03-06T14:34:45;10.88;;;2.78;;
73120;SDS011;61307;49.628;-1.624;2024-03-06T14:37:12;8.77;;;3.92;;
73120;SDS011;61307;49.628;-1.624;2024-03-06T14:39:39;8.55;;;4.00;;
73120;SDS011;61307;49.628;-1.624;2024-03-06T14:42:08;15.25;;;5.90;;
73120;SDS011;61307;49.628;-1.624;2024-03-06T14:44:35;9.88;;;3.78;;